createdAt,value
2017-11-20T13:05:43.636Z,1008.6
2017-11-20T13:06:24.203Z,1008.56
2017-11-20T13:07:04.786Z,1008.62
2017-11-20T13:07:45.362Z,1008.57
2017-11-20T13:08:25.953Z,1008.64
2017-11-20T13:09:06.519Z,1008.58
2017-11-20T13:09:47.072Z,1008.62
2017-11-20T13:10:27.648Z,1008.58
2017-11-20T13:11:08.196Z,1008.58
2017-11-20T13:11:48.775Z,1008.59
2017-11-20T13:12:29.348Z,1008.6
2017-11-20T13:13:09.920Z,1008.63
2017-11-20T13:13:50.510Z,1008.64
2017-11-20T13:14:31.049Z,1008.61
2017-11-20T13:15:11.634Z,1008.58
2017-11-20T13:15:52.198Z,1008.64
2017-11-20T13:16:32.770Z,1008.65
2017-11-20T13:17:13.317Z,1008.67
2017-11-20T13:17:53.885Z,1008.61
2017-11-20T13:18:34.463Z,1008.61
2017-11-20T13:19:15.030Z,1008.61
2017-11-20T13:19:55.625Z,1008.59
2017-11-20T13:20:36.194Z,1008.56
2017-11-20T13:21:16.790Z,1008.61
2017-11-20T13:21:57.391Z,1008.64
2017-11-20T13:22:37.944Z,1008.57
2017-11-20T13:23:18.543Z,1008.59
2017-11-20T13:23:59.103Z,1008.64
2017-11-20T13:24:39.694Z,1008.61
2017-11-20T13:25:20.276Z,1008.6
2017-11-20T13:26:00.834Z,1008.57
2017-11-20T13:26:41.426Z,1008.58
2017-11-20T13:27:22.002Z,1008.6
2017-11-20T13:28:02.587Z,1008.53
2017-11-20T13:28:43.164Z,1008.6
2017-11-20T13:29:23.739Z,1008.58
2017-11-20T13:30:04.323Z,1008.59
2017-11-20T13:30:44.902Z,1008.59
2017-11-20T13:31:25.510Z,1008.68
2017-11-20T13:32:06.071Z,1008.57
2017-11-20T13:32:46.618Z,1008.63
2017-11-20T13:33:27.220Z,1008.62
2017-11-20T13:34:07.784Z,1008.6
2017-11-20T13:34:48.366Z,1008.61
2017-11-20T13:35:28.941Z,1008.61
2017-11-20T13:36:09.509Z,1008.61
2017-11-20T13:36:50.091Z,1008.67
2017-11-20T13:37:30.677Z,1008.6
2017-11-20T13:38:11.259Z,1008.65
2017-11-20T13:38:51.841Z,1008.64
2017-11-20T13:39:32.434Z,1008.61
2017-11-20T13:40:13.017Z,1008.64
2017-11-20T13:40:53.582Z,1008.63
2017-11-20T13:41:34.172Z,1008.63
2017-11-20T13:42:14.726Z,1008.64
2017-11-20T13:42:55.293Z,1008.6
2017-11-20T13:43:35.870Z,1008.61
2017-11-20T13:44:16.442Z,1008.61
2017-11-20T13:44:57.016Z,1008.62
2017-11-20T13:45:37.592Z,1008.65
2017-11-20T13:46:18.186Z,1008.66
2017-11-20T13:46:58.770Z,1008.69
2017-11-20T13:47:39.361Z,1008.65
2017-11-20T13:48:19.924Z,1008.63
2017-11-20T13:49:00.476Z,1008.67
2017-11-20T13:49:41.055Z,1008.66
2017-11-20T13:50:21.633Z,1008.66
2017-11-20T13:51:02.190Z,1008.69
2017-11-20T13:51:42.745Z,1008.64
2017-11-20T13:52:23.292Z,1008.68
2017-11-20T13:53:03.848Z,1008.65
2017-11-20T13:53:44.402Z,1008.64
2017-11-20T13:54:24.970Z,1008.65
2017-11-20T13:55:05.524Z,1008.64
2017-11-20T13:55:46.083Z,1008.67
2017-11-20T13:56:26.638Z,1008.7
2017-11-20T13:57:07.215Z,1008.66
2017-11-20T13:57:47.780Z,1008.7
2017-11-20T13:58:28.349Z,1008.66
2017-11-20T13:59:08.935Z,1008.66
2017-11-20T13:59:49.489Z,1008.69
2017-11-20T14:00:30.052Z,1008.68
2017-11-20T14:01:10.658Z,1008.69
2017-11-20T14:01:51.209Z,1008.74
2017-11-20T14:02:31.784Z,1008.68
2017-11-20T14:03:12.319Z,1008.7
2017-11-20T14:03:52.889Z,1008.63
2017-11-20T14:04:33.461Z,1008.67
2017-11-20T14:05:14.046Z,1008.66
2017-11-20T14:05:54.602Z,1008.68
2017-11-20T14:06:35.166Z,1008.64
2017-11-20T14:07:15.730Z,1008.58
2017-11-20T14:07:56.312Z,1008.64
2017-11-20T14:08:36.893Z,1008.62
2017-11-20T14:09:17.496Z,1008.67
2017-11-20T14:09:58.057Z,1008.63
2017-11-20T14:10:38.638Z,1008.62
2017-11-20T14:11:19.208Z,1008.63
2017-11-20T14:11:59.809Z,1008.65
2017-11-20T14:12:40.391Z,1008.61
2017-11-20T14:13:20.966Z,1008.6
2017-11-20T14:14:01.553Z,1008.64
2017-11-20T14:14:42.143Z,1008.6
2017-11-20T14:15:22.721Z,1008.61
2017-11-20T14:16:03.296Z,1008.61
2017-11-20T14:16:43.882Z,1008.6
2017-11-20T14:17:24.468Z,1008.63
2017-11-20T14:18:05.039Z,1008.65
2017-11-20T14:18:45.613Z,1008.63
2017-11-20T14:19:26.168Z,1008.62
2017-11-20T14:20:07.746Z,1008.57
2017-11-20T14:20:49.543Z,1008.58
2017-11-20T14:21:31.180Z,1008.63
2017-11-20T14:22:12.581Z,1008.6
2017-11-20T14:22:53.862Z,1008.6
2017-11-20T14:23:34.428Z,1008.61
2017-11-20T14:24:14.993Z,1008.59
2017-11-20T14:24:55.677Z,1008.6
2017-11-20T14:25:36.290Z,1008.6
2017-11-20T14:26:16.861Z,1008.56
2017-11-20T14:26:57.671Z,1008.57
2017-11-20T14:27:38.525Z,1008.59
2017-11-20T14:28:19.418Z,1008.6
2017-11-20T14:29:00.204Z,1008.58
2017-11-20T14:29:41.182Z,1008.58
2017-11-20T14:30:22.370Z,1008.62
2017-11-20T14:31:03.159Z,1008.56
2017-11-20T14:31:43.971Z,1008.56
2017-11-20T14:32:25.009Z,1008.5
2017-11-20T14:33:05.732Z,1008.55
2017-11-20T14:33:46.350Z,1008.48
2017-11-20T14:34:26.925Z,1008.5
2017-11-20T14:35:07.637Z,1008.47
2017-11-20T14:35:48.418Z,1008.48
2017-11-20T14:36:29.489Z,1008.49
2017-11-20T14:37:10.284Z,1008.47
2017-11-20T14:37:51.294Z,1008.47
2017-11-20T14:38:32.067Z,1008.49
2017-11-20T14:39:12.862Z,1008.52
2017-11-20T14:39:53.710Z,1008.5
2017-11-20T14:40:34.521Z,1008.52
2017-11-20T14:41:15.380Z,1008.55
2017-11-20T14:41:56.246Z,1008.51
2017-11-20T14:42:37.129Z,1008.46
2017-11-20T14:43:17.941Z,1008.48
2017-11-20T14:43:58.744Z,1008.48
2017-11-20T14:44:39.671Z,1008.49
2017-11-20T14:45:20.517Z,1008.51
2017-11-20T14:46:01.205Z,1008.48
2017-11-20T14:46:42.088Z,1008.46
2017-11-20T14:47:22.840Z,1008.48
2017-11-20T14:48:03.796Z,1008.46
2017-11-20T14:48:44.739Z,1008.48
2017-11-20T14:49:25.634Z,1008.48
2017-11-20T14:50:06.373Z,1008.45
2017-11-20T14:50:47.215Z,1008.47
2017-11-20T14:51:28.127Z,1008.49
2017-11-20T14:52:08.935Z,1008.49
2017-11-20T14:52:49.783Z,1008.48
2017-11-20T14:53:30.580Z,1008.48
2017-11-20T14:54:11.373Z,1008.46
2017-11-20T14:54:52.317Z,1008.46
2017-11-20T14:55:33.108Z,1008.46
2017-11-20T14:56:13.878Z,1008.43
2017-11-20T14:56:54.648Z,1008.42
2017-11-20T14:57:35.575Z,1008.46
2017-11-20T14:58:16.457Z,1008.39
2017-11-20T14:58:57.045Z,1008.38
2017-11-20T14:59:37.850Z,1008.4
2017-11-20T15:00:18.751Z,1008.42
2017-11-20T15:00:59.665Z,1008.38
2017-11-20T15:01:40.466Z,1008.39
2017-11-20T15:02:21.303Z,1008.39
2017-11-20T15:03:02.185Z,1008.38
2017-11-20T15:03:43.087Z,1008.38
2017-11-20T15:04:23.650Z,1008.4
2017-11-20T15:05:04.275Z,1008.38
2017-11-20T15:05:45.605Z,1008.39
2017-11-20T15:06:26.319Z,1008.33
2017-11-20T15:07:07.098Z,1008.37
2017-11-20T15:07:47.944Z,1008.39
2017-11-20T15:08:28.793Z,1008.37
2017-11-20T15:09:09.541Z,1008.33
2017-11-20T15:09:50.317Z,1008.36
2017-11-20T15:10:30.871Z,1008.35
2017-11-20T15:11:11.692Z,1008.34
2017-11-20T15:11:52.580Z,1008.33
2017-11-20T15:12:33.454Z,1008.31
2017-11-20T15:13:14.314Z,1008.27
2017-11-20T15:13:55.224Z,1008.34
2017-11-20T15:14:36.028Z,1008.3
2017-11-20T15:15:16.922Z,1008.28
2017-11-20T15:15:57.913Z,1008.28
2017-11-20T15:16:38.468Z,1008.26
2017-11-20T15:17:19.179Z,1008.27
2017-11-20T15:18:00.058Z,1008.26
2017-11-20T15:18:40.921Z,1008.29
2017-11-20T15:19:22.416Z,1008.3
2017-11-20T15:20:03.599Z,1008.28
2017-11-20T15:20:44.349Z,1008.3
2017-11-20T15:21:25.240Z,1008.33
2017-11-20T15:22:06.128Z,1008.33
2017-11-20T15:22:47.068Z,1008.36
2017-11-20T15:23:27.930Z,1008.32
2017-11-20T15:24:08.755Z,1008.37
2017-11-20T15:24:49.513Z,1008.32
2017-11-20T15:25:30.450Z,1008.3
2017-11-20T15:26:11.287Z,1008.28
2017-11-20T15:26:52.214Z,1008.26
2017-11-20T15:27:32.951Z,1008.29
2017-11-20T15:28:13.763Z,1008.29
2017-11-20T15:28:54.618Z,1008.25
2017-11-20T15:29:35.442Z,1008.28
2017-11-20T15:30:16.259Z,1008.28
2017-11-20T15:30:57.092Z,1008.27
2017-11-20T15:31:37.964Z,1008.26
2017-11-20T15:32:18.995Z,1008.27
2017-11-20T15:32:59.649Z,1008.28
2017-11-20T15:33:40.480Z,1008.31
2017-11-20T15:34:21.437Z,1008.28
2017-11-20T15:35:02.271Z,1008.28
2017-11-20T15:35:43.036Z,1008.35
2017-11-20T15:36:23.912Z,1008.33
2017-11-20T15:37:04.704Z,1008.37
2017-11-20T15:37:45.641Z,1008.31
2017-11-20T15:38:26.634Z,1008.24
2017-11-20T15:39:07.465Z,1008.3
2017-11-20T15:39:48.469Z,1008.31
2017-11-20T15:40:29.402Z,1008.26
2017-11-20T15:41:10.273Z,1008.31
2017-11-20T15:41:51.174Z,1008.33
2017-11-20T15:42:32.034Z,1008.28
2017-11-20T15:43:12.761Z,1008.31
2017-11-20T15:43:53.686Z,1008.27
2017-11-20T15:44:34.477Z,1008.28
2017-11-20T15:45:15.333Z,1008.33
2017-11-20T15:45:56.175Z,1008.27
2017-11-20T15:46:37.078Z,1008.31
2017-11-20T15:47:18.044Z,1008.23
2017-11-20T15:47:58.843Z,1008.25
2017-11-20T15:48:39.692Z,1008.24
2017-11-20T15:49:20.587Z,1008.31
2017-11-20T15:50:01.419Z,1008.26
2017-11-20T15:50:42.218Z,1008.27
2017-11-20T15:51:23.034Z,1008.23
2017-11-20T15:52:04.014Z,1008.28
2017-11-20T15:52:44.809Z,1008.25
2017-11-20T15:53:25.617Z,1008.24
2017-11-20T15:54:06.460Z,1008.3
2017-11-20T15:54:47.355Z,1008.29
2017-11-20T15:55:28.450Z,1008.29
2017-11-20T15:56:09.127Z,1008.28
2017-11-20T15:56:49.992Z,1008.28
2017-11-20T15:57:30.928Z,1008.29
2017-11-20T15:58:11.781Z,1008.29
2017-11-20T15:58:52.848Z,1008.28
2017-11-20T15:59:33.724Z,1008.27
2017-11-20T16:00:14.635Z,1008.26
2017-11-20T16:00:55.478Z,1008.26
2017-11-20T16:01:36.074Z,1008.23
2017-11-20T16:02:16.776Z,1008.29
2017-11-20T16:02:57.655Z,1008.26
2017-11-20T16:03:38.581Z,1008.24
2017-11-20T16:04:19.786Z,1008.2
2017-11-20T16:05:00.492Z,1008.22
2017-11-20T16:05:41.245Z,1008.23
2017-11-20T16:06:22.068Z,1008.23
2017-11-20T16:07:02.912Z,1008.25
2017-11-20T16:07:43.511Z,1008.23
2017-11-20T16:08:24.074Z,1008.19
2017-11-20T16:09:04.737Z,1008.21
2017-11-20T16:09:45.543Z,1008.19
2017-11-20T16:10:26.258Z,1008.18
2017-11-20T16:11:06.878Z,1008.22
2017-11-20T16:11:47.552Z,1008.18
2017-11-20T16:12:28.137Z,1008.15
2017-11-20T16:13:08.827Z,1008.21
2017-11-20T16:13:49.452Z,1008.17
2017-11-20T16:14:30.054Z,1008.21
2017-11-20T16:15:12.310Z,1008.17
2017-11-20T16:16:00.762Z,1008.23
2017-11-20T16:16:50.165Z,1008.2
2017-11-20T16:17:30.789Z,1008.17
2017-11-20T16:18:11.364Z,1008.18
2017-11-20T16:18:51.960Z,1008.2
2017-11-20T16:19:32.564Z,1008.17
2017-11-20T16:20:13.124Z,1008.15
2017-11-20T16:20:53.723Z,1008.18
2017-11-20T16:21:34.305Z,1008.18
2017-11-20T16:22:14.881Z,1008.2
2017-11-20T16:22:55.465Z,1008.17
2017-11-20T16:23:36.038Z,1008.14
2017-11-20T16:24:16.722Z,1008.16
2017-11-20T16:24:58.104Z,1008.2
2017-11-20T16:25:46.629Z,1008.14
2017-11-20T16:26:27.217Z,1008.18
2017-11-20T16:27:07.779Z,1008.16
2017-11-20T16:27:48.353Z,1008.17
2017-11-20T16:28:28.924Z,1008.17
2017-11-20T16:29:09.489Z,1008.21
2017-11-20T16:29:50.064Z,1008.16
2017-11-20T16:30:30.729Z,1008.16
2017-11-20T16:31:11.319Z,1008.16
2017-11-20T16:31:51.885Z,1008.17
2017-11-20T16:32:32.456Z,1008.18
2017-11-20T16:33:13.036Z,1008.19
2017-11-20T16:33:53.596Z,1008.16
2017-11-20T16:34:34.253Z,1008.17
2017-11-20T16:35:14.940Z,1008.2
2017-11-20T16:35:55.586Z,1008.16
2017-11-20T16:36:36.142Z,1008.17
2017-11-20T16:37:16.754Z,1008.18
2017-11-20T16:37:57.349Z,1008.18
2017-11-20T16:38:37.918Z,1008.19
2017-11-20T16:39:18.463Z,1008.23
2017-11-20T16:39:59.035Z,1008.21
2017-11-20T16:40:39.660Z,1008.21
2017-11-20T16:41:20.214Z,1008.22
2017-11-20T16:42:00.772Z,1008.23
2017-11-20T16:42:41.347Z,1008.17
2017-11-20T16:43:21.906Z,1008.21
2017-11-20T16:44:02.477Z,1008.18
2017-11-20T16:44:43.049Z,1008.18
2017-11-20T16:45:23.620Z,1008.18
2017-11-20T16:46:04.183Z,1008.22
2017-11-20T16:46:44.779Z,1008.19
2017-11-20T16:47:25.333Z,1008.22
2017-11-20T16:48:05.900Z,1008.24
2017-11-20T16:48:46.729Z,1008.2
2017-11-20T16:49:27.340Z,1008.16
2017-11-20T16:50:07.906Z,1008.19
2017-11-20T16:50:48.476Z,1008.23
2017-11-20T16:51:29.214Z,1008.21
2017-11-20T16:52:09.838Z,1008.22
2017-11-20T16:52:50.462Z,1008.18
2017-11-20T16:53:31.114Z,1008.2
2017-11-20T16:54:11.633Z,1008.22
2017-11-20T16:54:52.217Z,1008.16
2017-11-20T16:55:32.804Z,1008.2
2017-11-20T16:56:13.530Z,1008.2
2017-11-20T16:56:54.105Z,1008.24
2017-11-20T16:57:34.691Z,1008.22
2017-11-20T16:58:15.276Z,1008.17
2017-11-20T16:58:56.015Z,1008.2
2017-11-20T16:59:36.586Z,1008.17
2017-11-20T17:00:17.167Z,1008.21
2017-11-20T17:00:57.751Z,1008.18
2017-11-20T17:01:38.370Z,1008.19
2017-11-20T17:02:19.637Z,1008.15
2017-11-20T17:03:00.582Z,1008.17
2017-11-20T17:03:41.324Z,1008.14
2017-11-20T17:04:21.899Z,1008.17
2017-11-20T17:05:02.489Z,1008.19
2017-11-20T17:05:43.066Z,1008.16
2017-11-20T17:06:23.731Z,1008.17
2017-11-20T17:07:04.375Z,1008.15
2017-11-20T17:07:44.924Z,1008.11
2017-11-20T17:08:25.492Z,1008.14
2017-11-20T17:09:06.176Z,1008.12
2017-11-20T17:09:46.797Z,1008.14
2017-11-20T17:10:27.478Z,1008.12
2017-11-20T17:11:08.035Z,1008.12
2017-11-20T17:11:48.781Z,1008.19
2017-11-20T17:12:29.281Z,1008.18
2017-11-20T17:13:09.913Z,1008.16
2017-11-20T17:13:50.470Z,1008.15
2017-11-20T17:14:31.052Z,1008.17
2017-11-20T17:15:11.630Z,1008.15
2017-11-20T17:15:52.361Z,1008.17
2017-11-20T17:16:32.818Z,1008.14
2017-11-20T17:17:13.539Z,1008.14
2017-11-20T17:17:54.111Z,1008.18
2017-11-20T17:18:34.937Z,1008.23
2017-11-20T17:19:15.498Z,1008.19
2017-11-20T17:19:56.069Z,1008.17
2017-11-20T17:20:36.634Z,1008.19
2017-11-20T17:21:17.208Z,1008.2
2017-11-20T17:21:57.788Z,1008.21
2017-11-20T17:22:38.376Z,1008.21
2017-11-20T17:23:18.980Z,1008.2
2017-11-20T17:23:59.554Z,1008.2
2017-11-20T17:24:40.233Z,1008.16
2017-11-20T17:25:20.796Z,1008.17
2017-11-20T17:26:01.367Z,1008.2
2017-11-20T17:26:41.955Z,1008.2
2017-11-20T17:27:22.522Z,1008.19
2017-11-20T17:28:03.081Z,1008.23
2017-11-20T17:28:43.667Z,1008.17
2017-11-20T17:29:24.271Z,1008.14
2017-11-20T17:30:04.911Z,1008.15
2017-11-20T17:30:45.521Z,1008.17
2017-11-20T17:31:26.304Z,1008.14
2017-11-20T17:32:06.851Z,1008.16
2017-11-20T17:32:47.470Z,1008.13
2017-11-20T17:33:28.087Z,1008.11
2017-11-20T17:34:08.803Z,1008.13
2017-11-20T17:34:49.368Z,1008.16
2017-11-20T17:35:29.935Z,1008.15
2017-11-20T17:36:10.506Z,1008.1
2017-11-20T17:36:51.106Z,1008.08
2017-11-20T17:37:31.675Z,1008.08
2017-11-20T17:38:12.329Z,1008.08
2017-11-20T17:38:52.918Z,1008.07
2017-11-20T17:39:33.501Z,1008.07
2017-11-20T17:40:14.096Z,1008.02
2017-11-20T17:40:56.862Z,1008
2017-11-20T17:41:37.496Z,1008.02
2017-11-20T17:42:18.248Z,1008.05
2017-11-20T17:42:59.044Z,1008.04
2017-11-20T17:43:39.980Z,1008.01
2017-11-20T17:44:21.517Z,1008.02
2017-11-20T17:45:06.550Z,1007.99
2017-11-20T17:45:47.162Z,1008.01
2017-11-20T17:46:27.947Z,1008.01
2017-11-20T17:47:08.658Z,1008.03
2017-11-20T17:47:49.443Z,1007.98
2017-11-20T17:48:30.152Z,1008.01
2017-11-20T17:49:10.783Z,1008.02
2017-11-20T17:49:51.450Z,1008.02
2017-11-20T17:50:32.099Z,1008.02
2017-11-20T17:51:12.828Z,1008
2017-11-20T17:51:53.509Z,1008.01
2017-11-20T17:52:34.490Z,1008.06
2017-11-20T17:53:15.235Z,1008
2017-11-20T17:53:55.850Z,1008.04
2017-11-20T17:54:36.454Z,1008.03
2017-11-20T17:55:17.325Z,1007.97
2017-11-20T17:55:57.900Z,1007.99
2017-11-20T17:56:38.517Z,1008.05
2017-11-20T17:57:19.182Z,1008.04
2017-11-20T17:57:59.964Z,1008.02
2017-11-20T17:58:40.636Z,1008.03
2017-11-20T17:59:21.254Z,1008.03
2017-11-20T18:00:01.841Z,1008.01
2017-11-20T18:00:42.457Z,1008.03
2017-11-20T18:01:23.072Z,1008.05
2017-11-20T18:02:03.699Z,1008.01
2017-11-20T18:02:44.296Z,1008.01
2017-11-20T18:03:24.923Z,1008.01
2017-11-20T18:04:05.527Z,1008.02
2017-11-20T18:04:46.191Z,1008.03
2017-11-20T18:05:26.773Z,1008.07
2017-11-20T18:06:07.362Z,1008.07
2017-11-20T18:06:47.972Z,1008.05
2017-11-20T18:07:28.641Z,1008.04
2017-11-20T18:08:09.273Z,1008.01
2017-11-20T18:08:49.891Z,1008.01
2017-11-20T18:09:30.486Z,1008.03
2017-11-20T18:10:11.109Z,1008.03
2017-11-20T18:10:51.729Z,1008
2017-11-20T18:11:32.333Z,1008
2017-11-20T18:12:12.910Z,1008.01
2017-11-20T18:12:53.500Z,1008
2017-11-20T18:13:34.087Z,1008.03
2017-11-20T18:14:14.684Z,1007.98
2017-11-20T18:14:55.399Z,1008
2017-11-20T18:15:36.044Z,1008
2017-11-20T18:16:16.654Z,1007.98
2017-11-20T18:16:57.295Z,1007.98
2017-11-20T18:17:37.875Z,1007.95
2017-11-20T18:18:18.477Z,1007.96
2017-11-20T18:18:59.062Z,1007.96
2017-11-20T18:19:39.709Z,1007.98
2017-11-20T18:20:20.327Z,1008
2017-11-20T18:21:00.955Z,1007.98
2017-11-20T18:21:41.589Z,1007.96
2017-11-20T18:22:22.210Z,1007.92
2017-11-20T18:23:03.195Z,1007.94
2017-11-20T18:23:43.838Z,1007.89
2017-11-20T18:24:24.492Z,1007.92
2017-11-20T18:25:05.146Z,1007.9
2017-11-20T18:25:45.747Z,1007.94
2017-11-20T18:26:26.345Z,1007.87
2017-11-20T18:27:06.947Z,1007.84
2017-11-20T18:27:47.564Z,1007.87
2017-11-20T18:28:28.151Z,1007.9
2017-11-20T18:29:08.763Z,1007.87
2017-11-20T18:29:49.310Z,1007.84
2017-11-20T18:30:29.940Z,1007.87
2017-11-20T18:31:10.580Z,1007.84
2017-11-20T18:31:51.212Z,1007.88
2017-11-20T18:32:31.860Z,1007.88
2017-11-20T18:33:12.548Z,1007.87
2017-11-20T18:33:53.152Z,1007.92
2017-11-20T18:34:33.774Z,1007.89
2017-11-20T18:35:14.367Z,1007.92
2017-11-20T18:35:54.956Z,1007.94
2017-11-20T18:36:35.576Z,1007.95
2017-11-20T18:37:16.200Z,1007.95
2017-11-20T18:37:56.881Z,1007.94
2017-11-20T18:38:37.408Z,1007.93
2017-11-20T18:39:18.005Z,1008
2017-11-20T18:39:58.639Z,1007.99
2017-11-20T18:40:39.205Z,1007.99
2017-11-20T18:41:19.801Z,1007.97
2017-11-20T18:42:00.396Z,1007.94
2017-11-20T18:42:40.981Z,1007.93
2017-11-20T18:43:21.586Z,1007.96
2017-11-20T18:44:02.201Z,1007.98
2017-11-20T18:44:42.843Z,1007.94
2017-11-20T18:45:23.448Z,1007.93
2017-11-20T18:46:04.042Z,1007.94
2017-11-20T18:46:44.651Z,1007.98
2017-11-20T18:47:25.292Z,1007.91
2017-11-20T18:48:05.843Z,1008
2017-11-20T18:48:46.405Z,1007.96
2017-11-20T18:49:26.981Z,1007.99
2017-11-20T18:50:07.642Z,1007.97
2017-11-20T18:50:48.295Z,1007.97
2017-11-20T18:51:28.879Z,1007.97
2017-11-20T18:52:09.490Z,1007.95
2017-11-20T18:52:50.187Z,1007.95
2017-11-20T18:53:30.864Z,1007.93
2017-11-20T18:54:11.489Z,1007.95
2017-11-20T18:54:52.080Z,1007.92
2017-11-20T18:55:32.654Z,1007.92
2017-11-20T18:56:13.287Z,1007.94
2017-11-20T18:56:53.914Z,1007.96
2017-11-20T18:57:34.507Z,1007.88
2017-11-20T18:58:15.092Z,1007.93
2017-11-20T18:58:55.714Z,1007.95
2017-11-20T18:59:36.323Z,1007.91
2017-11-20T19:00:16.923Z,1007.91
2017-11-20T19:00:57.498Z,1007.94
2017-11-20T19:01:38.060Z,1007.91
2017-11-20T19:02:18.634Z,1007.91
2017-11-20T19:02:59.212Z,1007.95
2017-11-20T19:03:39.849Z,1007.91
2017-11-20T19:04:20.452Z,1007.91
2017-11-20T19:05:01.054Z,1007.95
2017-11-20T19:05:41.626Z,1007.97
2017-11-20T19:06:22.241Z,1007.96
2017-11-20T19:07:02.821Z,1007.95
2017-11-20T19:07:43.693Z,1007.96
2017-11-20T19:08:24.939Z,1007.97
2017-11-20T19:09:05.677Z,1007.97
2017-11-20T19:09:46.256Z,1007.96
2017-11-20T19:10:26.848Z,1007.99
2017-11-20T19:11:07.445Z,1007.93
2017-11-20T19:11:48.028Z,1007.96
2017-11-20T19:12:28.616Z,1007.96
2017-11-20T19:13:09.186Z,1007.93
2017-11-20T19:13:49.789Z,1007.92
2017-11-20T19:14:30.350Z,1007.92
2017-11-20T19:15:10.922Z,1007.88
2017-11-20T19:15:51.496Z,1007.9
2017-11-20T19:16:32.780Z,1007.89
2017-11-20T19:17:13.362Z,1007.85
2017-11-20T19:17:53.930Z,1007.92
2017-11-20T19:18:34.495Z,1007.9
2017-11-20T19:19:15.067Z,1007.87
2017-11-20T19:19:55.642Z,1007.9
2017-11-20T19:20:36.210Z,1007.92
2017-11-20T19:21:16.765Z,1007.88
2017-11-20T19:21:57.355Z,1007.88
2017-11-20T19:22:37.918Z,1007.91
2017-11-20T19:23:18.493Z,1007.87
2017-11-20T19:24:04.996Z,1007.9
2017-11-20T19:24:45.559Z,1007.89
2017-11-20T19:25:26.120Z,1007.92
2017-11-20T19:26:06.704Z,1007.88
2017-11-20T19:26:47.323Z,1007.9
2017-11-20T19:27:27.919Z,1007.92
2017-11-20T19:28:08.531Z,1007.92
2017-11-20T19:28:49.117Z,1007.91
2017-11-20T19:29:29.704Z,1007.92
2017-11-20T19:30:10.304Z,1007.93
2017-11-20T19:30:50.906Z,1007.91
2017-11-20T19:31:31.531Z,1007.87
2017-11-20T19:32:12.129Z,1007.89
2017-11-20T19:32:52.707Z,1007.9
2017-11-20T19:33:33.274Z,1007.89
2017-11-20T19:34:13.863Z,1007.94
2017-11-20T19:34:54.447Z,1007.94
2017-11-20T19:35:35.027Z,1007.89
2017-11-20T19:36:15.975Z,1007.91
2017-11-20T19:36:56.537Z,1007.91
2017-11-20T19:37:38.005Z,1007.89
2017-11-20T19:38:18.607Z,1007.91
2017-11-20T19:38:59.174Z,1007.91
2017-11-20T19:39:39.765Z,1007.84
2017-11-20T19:40:20.321Z,1007.91
2017-11-20T19:41:02.491Z,1007.85
2017-11-20T19:41:44.011Z,1007.84
2017-11-20T19:42:24.597Z,1007.84
2017-11-20T19:43:05.175Z,1007.83
2017-11-20T19:43:47.652Z,1007.83
2017-11-20T19:44:53.485Z,1007.8
2017-11-20T19:45:34.058Z,1007.8
2017-11-20T19:46:15.327Z,1007.83
2017-11-20T19:47:19.824Z,1007.79
2017-11-20T19:48:01.842Z,1007.78
2017-11-20T19:48:42.451Z,1007.8
2017-11-20T19:49:23.038Z,1007.78
2017-11-20T19:50:03.687Z,1007.77
2017-11-20T19:51:02.238Z,1007.82
2017-11-20T19:51:50.425Z,1007.77
2017-11-20T19:52:30.988Z,1007.78
2017-11-20T19:53:11.585Z,1007.79
2017-11-20T19:53:52.141Z,1007.78
2017-11-20T19:54:32.733Z,1007.8
2017-11-20T19:55:13.350Z,1007.82
2017-11-20T19:55:53.932Z,1007.85
2017-11-20T19:56:34.497Z,1007.85
2017-11-20T19:57:15.041Z,1007.87
2017-11-20T19:57:55.626Z,1007.83
2017-11-20T19:58:36.239Z,1007.85
2017-11-20T19:59:18.714Z,1007.85
2017-11-20T20:00:10.215Z,1007.83
2017-11-20T20:00:50.817Z,1007.88
2017-11-20T20:01:31.384Z,1007.81
2017-11-20T20:02:11.952Z,1007.84
2017-11-20T20:02:52.509Z,1007.8
2017-11-20T20:03:33.652Z,1007.82
2017-11-20T20:04:14.223Z,1007.8
2017-11-20T20:04:54.809Z,1007.84
2017-11-20T20:05:35.373Z,1007.86
2017-11-20T20:06:16.050Z,1007.81
2017-11-20T20:06:56.616Z,1007.83
2017-11-20T20:07:37.228Z,1007.82
2017-11-20T20:08:17.785Z,1007.86
2017-11-20T20:08:58.376Z,1007.87
2017-11-20T20:09:38.940Z,1007.83
2017-11-20T20:10:19.530Z,1007.86
2017-11-20T20:11:00.082Z,1007.86
2017-11-20T20:11:40.661Z,1007.81
2017-11-20T20:12:21.287Z,1007.81
2017-11-20T20:13:01.882Z,1007.83
2017-11-20T20:13:42.483Z,1007.8
2017-11-20T20:14:23.067Z,1007.82
2017-11-20T20:15:03.637Z,1007.81
2017-11-20T20:15:44.268Z,1007.83
2017-11-20T20:16:24.846Z,1007.79
2017-11-20T20:17:05.454Z,1007.81
2017-11-20T20:17:46.020Z,1007.82
2017-11-20T20:19:59.142Z,1007.81
2017-11-20T20:20:39.720Z,1007.8
2017-11-20T20:21:20.318Z,1007.8
2017-11-20T20:22:00.919Z,1007.79
2017-11-20T20:22:41.600Z,1007.78
2017-11-20T20:23:22.201Z,1007.79
2017-11-20T20:24:02.761Z,1007.78
2017-11-20T20:24:43.428Z,1007.75
2017-11-20T20:25:24.114Z,1007.77
2017-11-20T20:26:04.690Z,1007.78
2017-11-20T20:26:46.169Z,1007.75
2017-11-20T20:27:26.783Z,1007.77
2017-11-20T20:28:07.356Z,1007.75
2017-11-20T20:28:47.971Z,1007.79
2017-11-20T20:29:28.544Z,1007.76
2017-11-20T20:30:09.137Z,1007.76
2017-11-20T20:30:49.729Z,1007.75
2017-11-20T20:31:30.325Z,1007.79
2017-11-20T20:32:10.911Z,1007.79
2017-11-20T20:32:51.532Z,1007.81
2017-11-20T20:33:32.305Z,1007.77
2017-11-20T20:34:12.814Z,1007.79
2017-11-20T20:34:53.400Z,1007.78
2017-11-20T20:35:33.986Z,1007.76
2017-11-20T20:36:14.579Z,1007.74
2017-11-20T20:36:55.163Z,1007.78
2017-11-20T20:37:35.822Z,1007.7
2017-11-20T20:38:16.319Z,1007.74
2017-11-20T20:38:56.894Z,1007.76
2017-11-20T20:39:37.503Z,1007.74
2017-11-20T20:40:18.074Z,1007.74
2017-11-20T20:40:58.658Z,1007.73
2017-11-20T20:41:39.244Z,1007.73
2017-11-20T20:42:19.828Z,1007.69
2017-11-20T20:43:00.409Z,1007.66
2017-11-20T20:43:41.001Z,1007.66
2017-11-20T20:44:21.591Z,1007.66
2017-11-20T20:45:02.173Z,1007.67
2017-11-20T20:45:42.755Z,1007.66
2017-11-20T20:46:23.318Z,1007.66
2017-11-20T20:47:03.899Z,1007.7
2017-11-20T20:47:44.483Z,1007.69
2017-11-20T20:48:25.058Z,1007.66
2017-11-20T20:49:05.647Z,1007.67
2017-11-20T20:49:46.232Z,1007.64
2017-11-20T20:50:26.822Z,1007.65
2017-11-20T20:51:07.378Z,1007.65
2017-11-20T20:51:47.955Z,1007.67
2017-11-20T20:52:28.530Z,1007.65
2017-11-20T20:53:09.134Z,1007.63
2017-11-20T20:53:49.716Z,1007.64
2017-11-20T20:54:30.281Z,1007.62
2017-11-20T20:55:10.874Z,1007.65
2017-11-20T20:55:51.498Z,1007.69
2017-11-20T20:56:32.097Z,1007.62
2017-11-20T20:57:12.663Z,1007.6
2017-11-20T20:57:53.253Z,1007.65
2017-11-20T20:58:33.858Z,1007.62
2017-11-20T20:59:14.431Z,1007.6
2017-11-20T20:59:54.986Z,1007.58
2017-11-20T21:00:35.560Z,1007.59
2017-11-20T21:01:16.149Z,1007.59
2017-11-20T21:01:56.729Z,1007.6
2017-11-20T21:02:37.317Z,1007.56
2017-11-20T21:03:17.893Z,1007.58
2017-11-20T21:03:58.455Z,1007.59
2017-11-20T21:04:39.015Z,1007.59
2017-11-20T21:05:19.611Z,1007.59
2017-11-20T21:06:00.176Z,1007.56
2017-11-20T21:06:40.752Z,1007.57
2017-11-20T21:07:21.330Z,1007.6
2017-11-20T21:08:01.893Z,1007.56
2017-11-20T21:08:42.489Z,1007.61
2017-11-20T21:09:23.563Z,1007.55
2017-11-20T21:10:03.721Z,1007.58
2017-11-20T21:10:44.276Z,1007.56
2017-11-20T21:11:24.864Z,1007.6
2017-11-20T21:12:05.451Z,1007.61
2017-11-20T21:12:46.028Z,1007.6
2017-11-20T21:13:26.589Z,1007.59
2017-11-20T21:14:07.167Z,1007.58
2017-11-20T21:14:47.753Z,1007.54
2017-11-20T21:15:28.330Z,1007.54
2017-11-20T21:16:08.913Z,1007.54
2017-11-20T21:16:49.487Z,1007.54
2017-11-20T21:17:30.175Z,1007.54
2017-11-20T21:18:10.770Z,1007.57
2017-11-20T21:18:51.367Z,1007.51
2017-11-20T21:19:31.931Z,1007.51
2017-11-20T21:20:12.527Z,1007.51
2017-11-20T21:20:53.118Z,1007.52
2017-11-20T21:21:33.724Z,1007.48
2017-11-20T21:22:14.278Z,1007.43
2017-11-20T21:22:54.871Z,1007.41